Castle Point, New York
Current Conditions -  °F | °C
As of 1:53 PM on Tuesday 27 Jan 2015 (Local Time) from KPOU Reporting Station
Haze Haze  
Wind Chill:   Ceiling: 2900
Heat Index: 22°   Visibility: 1mi
Dew Point: 13°   Wind: 15mph
Humidity: 68%   Direction: 10°N
Pressure: 29.71"   Gusts: 24mph
Location:  41.55°N, 73.96°W
Report Text: KPOU 271853Z 01013G21KT 1SM HZ FEW019 BKN029 OVC037 M06/M11 A2971 RMK AO2 SNE18 SLP058 P0000 T10561106
Loading
Personal Weather Stations






























Interactive Weather Map New forecast layout! Learn more

10-Day Weather Forecast

Advertisements
Track Severe Weather on mobile